Time;durP1;ratioP1;P1;durP2;ratioP2;P2;SDS_P1;SDS_P2;PMS_P1;PMS_P2;Temp;Humidity;BMP_temperature;BMP_pressure;BME280_temperature;BME280_humidity;BME280_pressure;Samples;Min_cycle;Max_cycle;Signal;HPM_P1;HPM_P2
2022/09/03 00:01:26;;;;;;;1.75;1.00;;;20.10;65.30;;;;;;5065457;28;20498;-36
2022/09/03 00:03:56;;;;;;;1.38;1.10;;;20.10;65.40;;;;;;5065278;28;20024;-35
2022/09/03 00:06:30;;;;;;;1.92;0.88;;;20.00;65.50;;;;;;5064906;28;20476;-35
2022/09/03 00:09:06;;;;;;;1.73;1.00;;;20.00;65.50;;;;;;5064847;28;20054;-35
2022/09/03 00:11:48;;;;;;;1.02;0.93;;;20.00;65.70;;;;;;5065024;28;20498;-37
2022/09/03 00:14:26;;;;;;;2.25;1.25;;;20.00;65.80;;;;;;5065271;28;20119;-36
2022/09/03 00:16:56;;;;;;;1.15;1.05;;;19.90;65.80;;;;;;5064413;28;20112;-35
2022/09/03 00:19:39;;;;;;;1.55;0.93;;;19.90;65.80;;;;;;5064898;28;20111;-36
2022/09/03 00:22:13;;;;;;;2.55;0.93;;;19.90;65.80;;;;;;5065481;28;20396;-36
2022/09/03 00:24:41;;;;;;;1.92;0.90;;;19.90;65.90;;;;;;5064365;28;20109;-36
2022/09/03 00:27:13;;;;;;;2.13;0.93;;;19.80;65.90;;;;;;5064504;28;20039;-34
2022/09/03 00:29:45;;;;;;;1.30;1.00;;;19.80;66.10;;;;;;5064616;28;20151;-36
2022/09/03 00:32:25;;;;;;;;;;;19.70;66.10;;;;;;5065386;28;20023;-36
2022/09/03 00:35:01;;;;;;;2.75;1.00;;;19.70;66.30;;;;;;5064647;28;19916;-35
2022/09/03 00:37:28;;;;;;;2.80;1.10;;;19.70;66.30;;;;;;5064525;28;20062;-35
2022/09/03 00:39:55;;;;;;;2.50;1.10;;;19.60;66.40;;;;;;5064465;28;20073;-35
2022/09/03 00:42:30;;;;;;;3.83;1.10;;;19.60;66.50;;;;;;5065176;28;20035;-36
2022/09/03 00:45:16;;;;;;;2.45;1.20;;;19.60;66.60;;;;;;5064297;28;20543;-36
2022/09/03 00:48:06;;;;;;;1.35;1.10;;;19.60;66.70;;;;;;5054777;28;20068;-36
2022/09/03 00:50:44;;;;;;;1.17;0.80;;;19.50;66.70;;;;;;5064668;28;20347;-37
2022/09/03 00:53:23;;;;;;;1.20;1.10;;;19.50;66.80;;;;;;5065070;28;20052;-36
2022/09/03 00:56:15;;;;;;;2.05;1.10;;;19.50;67.00;;;;;;5064379;28;20467;-36
2022/09/03 00:58:51;;;;;;;1.65;0.90;;;19.50;67.10;;;;;;5063576;28;20240;-36
2022/09/03 01:01:44;;;;;;;2.42;1.10;;;19.40;67.10;;;;;;5063931;28;20047;-35
2022/09/03 01:04:27;;;;;;;2.25;1.10;;;19.40;67.20;;;;;;5064856;28;20372;-36
2022/09/03 01:06:59;;;;;;;;;;;19.30;67.20;;;;;;5064421;28;20637;-35
2022/09/03 01:09:53;;;;;;;1.40;1.10;;;19.30;67.30;;;;;;5064317;28;19962;-35
2022/09/03 01:12:38;;;;;;;1.63;1.17;;;19.20;67.40;;;;;;5048890;28;20453;-36
2022/09/03 01:15:17;;;;;;;1.80;1.30;;;19.20;67.50;;;;;;5063734;28;20028;-35
2022/09/03 01:18:02;;;;;;;1.10;1.00;;;19.20;67.70;;;;;;5064780;28;20032;-36
2022/09/03 01:20:44;;;;;;;0.90;0.90;;;19.10;67.70;;;;;;5064715;28;20044;-36
2022/09/03 01:23:40;;;;;;;2.85;0.93;;;19.10;67.90;;;;;;5064489;28;20046;-36
2022/09/03 01:26:38;;;;;;;1.10;1.00;;;19.10;68.00;;;;;;5064032;28;20081;-36
2022/09/03 01:29:06;;;;;;;1.23;1.10;;;19.10;68.10;;;;;;5055195;28;20431;-35
2022/09/03 01:31:32;;;;;;;1.02;0.90;;;19.00;68.10;;;;;;5064483;28;20486;-35
2022/09/03 01:34:28;;;;;;;2.45;1.00;;;19.00;68.20;;;;;;5064162;28;20055;-34
2022/09/03 01:37:26;;;;;;;1.63;1.15;;;19.00;68.40;;;;;;5063780;28;20055;-35
2022/09/03 01:40:01;;;;;;;2.08;1.05;;;19.00;68.50;;;;;;5064875;28;20025;-35
2022/09/03 01:42:48;;;;;;;1.40;1.10;;;18.90;68.50;;;;;;5063459;28;20451;-35
2022/09/03 01:45:32;;;;;;;1.90;1.00;;;18.90;68.70;;;;;;5063619;28;20082;-34
2022/09/03 01:48:05;;;;;;;2.67;1.35;;;18.90;68.90;;;;;;5063715;28;20473;-35
2022/09/03 01:50:33;;;;;;;;;;;18.80;68.80;;;;;;5064009;28;20206;-35
2022/09/03 01:53:15;;;;;;;1.33;0.90;;;18.80;68.90;;;;;;5063389;28;19909;-35
2022/09/03 01:55:56;;;;;;;2.15;1.17;;;18.80;68.90;;;;;;5063460;28;20025;-35
2022/09/03 01:58:44;;;;;;;0.93;0.90;;;18.80;69.10;;;;;;5063160;28;20025;-35
2022/09/03 02:01:19;;;;;;;3.08;1.10;;;18.70;69.00;;;;;;5044120;28;20048;-34
2022/09/03 02:03:47;;;;;;;3.80;1.23;;;18.70;69.10;;;;;;5058497;28;20468;-35
2022/09/03 02:06:12;;;;;;;1.63;1.30;;;18.70;69.30;;;;;;5063653;28;20060;-35
2022/09/03 02:08:38;;;;;;;1.35;1.20;;;18.60;69.30;;;;;;5063374;28;20502;-35
2022/09/03 02:11:08;;;;;;;2.08;1.38;;;18.60;69.30;;;;;;5063492;28;20032;-35
2022/09/03 02:13:36;;;;;;;2.28;0.95;;;18.60;69.40;;;;;;5062594;28;20024;-37
2022/09/03 02:16:10;;;;;;;1.83;1.27;;;18.60;69.70;;;;;;5063609;28;20028;-35
2022/09/03 02:18:44;;;;;;;1.05;1.00;;;18.60;69.70;;;;;;5062935;28;20024;-36
2022/09/03 02:21:11;;;;;;;1.77;1.10;;;18.50;69.70;;;;;;5063526;28;20141;-35
2022/09/03 02:23:40;;;;;;;1.83;1.10;;;18.50;69.80;;;;;;5063323;28;20035;-35
2022/09/03 02:26:10;;;;;;;1.52;1.05;;;18.50;69.80;;;;;;5064299;28;20036;-35
2022/09/03 02:28:36;;;;;;;1.73;1.10;;;18.40;69.80;;;;;;5066968;28;20183;-35
2022/09/03 02:31:02;;;;;;;2.03;1.15;;;18.50;70.00;;;;;;5067340;28;20498;-35
2022/09/03 02:33:31;;;;;;;1.30;1.00;;;18.40;70.10;;;;;;5066253;28;20020;-34
2022/09/03 02:35:56;;;;;;;1.35;1.10;;;18.40;70.10;;;;;;5067088;28;20067;-35
2022/09/03 02:38:25;;;;;;;1.10;1.00;;;18.40;70.10;;;;;;5066777;28;20068;-35
2022/09/03 02:40:53;;;;;;;1.27;0.98;;;18.40;70.20;;;;;;5066044;28;20069;-36
2022/09/03 02:43:25;;;;;;;1.60;1.10;;;18.30;70.10;;;;;;5066846;28;20464;-36
2022/09/03 02:45:55;;;;;;;1.23;0.80;;;18.30;70.20;;;;;;5066059;28;20479;-36
2022/09/03 02:48:23;;;;;;;0.90;0.90;;;18.30;70.20;;;;;;5066723;28;20028;-35
2022/09/03 02:50:49;;;;;;;1.10;1.00;;;18.30;70.30;;;;;;5066085;28;20033;-36
2022/09/03 02:53:15;;;;;;;1.00;0.90;;;18.30;70.50;;;;;;5066625;28;20051;-34
2022/09/03 02:55:40;;;;;;;1.38;1.00;;;18.20;70.40;;;;;;5065786;28;20025;-34
2022/09/03 02:58:07;;;;;;;1.65;1.05;;;18.20;70.40;;;;;;5053919;28;20035;-36
2022/09/03 03:00:34;;;;;;;3.67;1.17;;;18.20;70.60;;;;;;5065999;28;20029;-35
2022/09/03 03:03:00;;;;;;;1.85;1.20;;;18.20;70.70;;;;;;5066287;28;20029;-34
2022/09/03 03:05:51;;;;;;;2.22;0.95;;;18.20;70.70;;;;;;5066374;28;20035;-35
2022/09/03 03:08:20;;;;;;;1.08;0.98;;;18.10;70.70;;;;;;5066677;28;20396;-35
2022/09/03 03:10:50;;;;;;;1.13;0.88;;;18.10;70.80;;;;;;5065600;28;20078;-35
2022/09/03 03:13:16;;;;;;;1.25;1.00;;;18.10;70.90;;;;;;5066670;28;20033;-35
2022/09/03 03:15:43;;;;;;;2.60;1.13;;;18.00;70.90;;;;;;5065696;28;20436;-35
2022/09/03 03:18:12;;;;;;;1.50;1.20;;;18.00;71.10;;;;;;5066225;28;20024;-34
2022/09/03 03:20:38;;;;;;;1.95;1.10;;;18.00;71.20;;;;;;5065967;28;20032;-35
2022/09/03 03:23:05;;;;;;;2.08;1.10;;;17.90;71.20;;;;;;5066055;28;20035;-35
2022/09/03 03:25:32;;;;;;;2.45;1.10;;;17.90;71.30;;;;;;5065752;28;20028;-35
2022/09/03 03:27:57;;;;;;;1.30;1.10;;;17.90;71.40;;;;;;5064848;28;20110;-35
2022/09/03 03:30:23;;;;;;;1.27;0.93;;;17.90;71.40;;;;;;5060934;28;20033;-35
2022/09/03 03:32:52;;;;;;;1.27;1.13;;;17.90;71.40;;;;;;5065499;28;20036;-35
2022/09/03 03:35:18;;;;;;;1.10;1.00;;;17.80;71.30;;;;;;5066052;28;20039;-34
2022/09/03 03:37:43;;;;;;;1.25;1.10;;;17.80;71.40;;;;;;5065377;28;20032;-36
2022/09/03 03:40:09;;;;;;;1.42;0.95;;;17.80;71.40;;;;;;5065445;28;20042;-35
2022/09/03 03:42:35;;;;;;;1.13;1.02;;;17.80;71.50;;;;;;5065357;28;20116;-34
2022/09/03 03:45:01;;;;;;;1.15;1.05;;;17.80;71.70;;;;;;5066800;28;20503;-36
2022/09/03 03:47:29;;;;;;;1.85;1.20;;;17.80;71.70;;;;;;5065301;28;20033;-35
2022/09/03 03:49:56;;;;;;;1.80;1.20;;;17.80;71.90;;;;;;5064887;28;20640;-34
2022/09/03 03:52:21;;;;;;;2.63;1.25;;;17.70;71.80;;;;;;5065584;28;20052;-35
2022/09/03 03:54:48;;;;;;;3.70;1.00;;;17.70;71.90;;;;;;5064731;28;20178;-35
2022/09/03 03:57:14;;;;;;;2.80;1.23;;;17.70;71.80;;;;;;5064887;28;20544;-35
2022/09/03 03:59:40;;;;;;;1.20;1.10;;;17.70;72.00;;;;;;5065620;28;20029;-34
2022/09/03 04:02:05;;;;;;;1.10;1.00;;;17.70;72.00;;;;;;5064521;28;20146;-36
2022/09/03 04:04:31;;;;;;;3.08;1.02;;;17.60;72.00;;;;;;5064394;28;20274;-35
2022/09/03 04:06:57;;;;;;;2.60;1.02;;;17.60;72.10;;;;;;5065230;28;20024;-35
2022/09/03 04:09:22;;;;;;;1.45;1.20;;;17.60;72.10;;;;;;5065206;28;20384;-35
2022/09/03 04:11:49;;;;;;;2.22;1.10;;;17.50;72.00;;;;;;5064483;28;20593;-36
2022/09/03 04:14:14;;;;;;;1.20;1.10;;;17.50;72.20;;;;;;5065572;28;20020;-35
2022/09/03 04:16:40;;;;;;;1.50;1.40;;;17.50;72.20;;;;;;5064212;28;20399;-35
2022/09/03 04:19:06;;;;;;;1.88;1.30;;;17.50;72.30;;;;;;5064619;28;20028;-35
2022/09/03 04:21:31;;;;;;;0.98;0.85;;;17.50;72.40;;;;;;5064384;28;20041;-36
2022/09/03 04:23:57;;;;;;;2.40;1.05;;;17.40;72.30;;;;;;5064866;28;20032;-34
2022/09/03 04:26:31;;;;;;;0.95;0.85;;;17.40;72.40;;;;;;5065025;28;20032;-36
2022/09/03 04:28:59;;;;;;;0.95;0.90;;;17.40;72.50;;;;;;5064263;28;20425;-35
2022/09/03 04:31:25;;;;;;;1.85;0.90;;;17.40;72.50;;;;;;5064717;28;20028;-36
2022/09/03 04:33:50;;;;;;;3.58;1.10;;;17.40;72.60;;;;;;5063868;28;20025;-35
2022/09/03 04:36:21;;;;;;;1.02;0.90;;;17.30;72.70;;;;;;5064745;28;20040;-34
2022/09/03 04:38:48;;;;;;;1.23;1.00;;;17.30;72.70;;;;;;5064198;28;20302;-35
2022/09/03 04:41:18;;;;;;;3.33;0.93;;;17.30;72.70;;;;;;5064449;28;20036;-35
2022/09/03 04:43:43;;;;;;;1.20;1.00;;;17.30;72.80;;;;;;5063821;28;20024;-36
2022/09/03 04:46:12;;;;;;;2.33;1.08;;;17.20;72.80;;;;;;5064444;28;20035;-35
2022/09/03 04:48:38;;;;;;;1.23;1.10;;;17.20;72.90;;;;;;5063359;28;20024;-36
2022/09/03 04:51:12;;;;;;;3.55;1.20;;;17.20;73.00;;;;;;5064642;28;20032;-35
2022/09/03 04:53:44;;;;;;;1.13;1.00;;;17.20;73.10;;;;;;5063654;28;20048;-36
2022/09/03 04:56:14;;;;;;;1.13;1.00;;;17.20;73.10;;;;;;5064568;28;20081;-36
2022/09/03 04:58:43;;;;;;;2.88;0.98;;;17.10;73.00;;;;;;5063775;28;20024;-34
2022/09/03 05:01:15;;;;;;;3.15;0.85;;;17.10;73.00;;;;;;5064534;28;20033;-34
2022/09/03 05:03:41;;;;;;;2.10;1.10;;;17.10;73.00;;;;;;5064044;28;20032;-34
2022/09/03 05:06:08;;;;;;;1.27;0.80;;;17.10;73.10;;;;;;5064844;28;20021;-35
2022/09/03 05:08:35;;;;;;;1.58;0.85;;;17.10;73.20;;;;;;5063744;28;20017;-35
2022/09/03 05:11:02;;;;;;;1.35;1.00;;;17.10;73.20;;;;;;5064294;28;20127;-35
2022/09/03 05:13:27;;;;;;;1.00;0.90;;;17.10;73.20;;;;;;5064368;28;20480;-35
2022/09/03 05:16:08;;;;;;;1.17;1.02;;;17.10;73.20;;;;;;5064115;28;20027;-36
2022/09/03 05:18:34;;;;;;;1.55;0.93;;;17.00;73.40;;;;;;5064179;28;20103;-36
2022/09/03 05:21:05;;;;;;;1.00;0.82;;;17.00;73.40;;;;;;5064506;28;20049;-34
2022/09/03 05:23:34;;;;;;;1.70;0.90;;;17.00;73.40;;;;;;5064527;28;20029;-34
2022/09/03 05:26:02;;;;;;;1.58;0.90;;;17.00;73.40;;;;;;5064424;28;20091;-34
2022/09/03 05:28:29;;;;;;;1.00;0.90;;;16.90;73.40;;;;;;5063966;28;20028;-35
2022/09/03 05:30:59;;;;;;;1.95;1.00;;;17.00;73.40;;;;;;5064004;28;20036;-35
2022/09/03 05:33:25;;;;;;;1.23;1.00;;;17.00;73.40;;;;;;5063726;28;20024;-35
2022/09/03 05:35:52;;;;;;;0.95;0.80;;;17.00;73.50;;;;;;5063332;28;20549;-36
2022/09/03 05:38:18;;;;;;;0.90;0.80;;;17.00;73.70;;;;;;5064597;28;20139;-35
2022/09/03 05:40:43;;;;;;;0.80;0.77;;;17.00;73.60;;;;;;5063686;28;20458;-35
2022/09/03 05:43:09;;;;;;;1.08;0.88;;;17.00;73.50;;;;;;5063851;28;20452;-35
2022/09/03 05:45:35;;;;;;;1.15;0.88;;;17.00;73.60;;;;;;5063793;28;20078;-36
2022/09/03 05:48:01;;;;;;;2.58;1.02;;;17.00;73.60;;;;;;5064603;28;20031;-35
2022/09/03 05:50:27;;;;;;;2.17;1.20;;;17.00;73.60;;;;;;5063190;28;20390;-36
2022/09/03 05:52:52;;;;;;;1.90;0.88;;;17.00;73.80;;;;;;5063657;28;20383;-37
2022/09/03 05:55:18;;;;;;;1.15;0.77;;;17.00;73.80;;;;;;5064107;28;20124;-34
2022/09/03 05:57:44;;;;;;;1.30;0.80;;;17.00;73.70;;;;;;5062789;28;20510;-36
2022/09/03 06:00:11;;;;;;;0.73;0.70;;;17.10;73.80;;;;;;5065688;28;20028;-35
2022/09/03 06:02:36;;;;;;;1.67;1.25;;;17.10;73.80;;;;;;5068045;28;20032;-34
2022/09/03 06:05:02;;;;;;;2.08;1.15;;;17.10;74.20;;;;;;5067191;28;20028;-34
2022/09/03 06:07:28;;;;;;;3.65;1.17;;;17.10;73.90;;;;;;5067204;28;20371;-36
2022/09/03 06:09:53;;;;;;;1.77;0.98;;;17.10;74.00;;;;;;5067613;28;20313;-34
2022/09/03 06:12:19;;;;;;;1.10;1.00;;;17.10;74.00;;;;;;5066982;28;20365;-36
2022/09/03 06:14:44;;;;;;;1.58;1.10;;;17.10;73.90;;;;;;5067639;28;20044;-35
2022/09/03 06:17:11;;;;;;;2.45;1.10;;;17.10;73.90;;;;;;5067446;28;20020;-35
2022/09/03 06:19:37;;;;;;;0.90;0.90;;;17.20;74.00;;;;;;5066167;28;20037;-35
2022/09/03 06:22:03;;;;;;;1.10;1.00;;;17.20;74.10;;;;;;5067227;28;20028;-37
2022/09/03 06:24:28;;;;;;;1.30;1.10;;;17.20;74.00;;;;;;5066226;28;20063;-36
2022/09/03 06:26:55;;;;;;;1.83;1.10;;;17.20;74.10;;;;;;5066915;28;20029;-37
2022/09/03 06:29:21;;;;;;;1.60;0.90;;;17.20;74.10;;;;;;5067416;28;20024;-35
2022/09/03 06:31:50;;;;;;;1.13;1.00;;;17.20;74.00;;;;;;5065859;28;20036;-36
2022/09/03 06:34:17;;;;;;;1.00;0.90;;;17.20;74.10;;;;;;5067697;28;20032;-38
2022/09/03 06:36:43;;;;;;;2.13;0.90;;;17.30;74.20;;;;;;5067151;28;20023;-35
2022/09/03 06:39:08;;;;;;;1.67;1.13;;;17.30;74.00;;;;;;5066568;28;20380;-37
2022/09/03 06:41:34;;;;;;;1.25;1.15;;;17.30;74.00;;;;;;5066842;28;20040;-35
2022/09/03 06:44:05;;;;;;;2.15;1.00;;;17.30;74.00;;;;;;5067035;28;20024;-35
2022/09/03 06:46:33;;;;;;;2.28;1.02;;;17.40;74.20;;;;;;5065865;28;20036;-35
2022/09/03 06:48:59;;;;;;;1.65;0.85;;;17.40;74.10;;;;;;5066450;28;20020;-35
2022/09/03 06:51:27;;;;;;;1.92;1.10;;;17.40;74.20;;;;;;5066698;28;20036;-35
2022/09/03 06:53:58;;;;;;;2.38;1.05;;;17.40;74.20;;;;;;5066111;28;20044;-35
2022/09/03 06:56:27;;;;;;;1.40;1.30;;;17.50;74.20;;;;;;5066109;28;20055;-35
2022/09/03 06:58:54;;;;;;;1.33;1.13;;;17.50;75.00;;;;;;5065888;28;20017;-35
2022/09/03 07:01:22;;;;;;;1.00;1.00;;;17.60;74.20;;;;;;5066616;28;20036;-35
2022/09/03 07:03:55;;;;;;;1.35;1.00;;;17.60;74.20;;;;;;5065534;28;20031;-35
2022/09/03 07:06:21;;;;;;;1.10;1.00;;;17.60;74.10;;;;;;5066990;28;20032;-35
2022/09/03 07:08:46;;;;;;;1.15;1.05;;;17.70;74.20;;;;;;5065735;28;20029;-33
2022/09/03 07:11:15;;;;;;;2.03;1.00;;;17.70;74.10;;;;;;5065453;28;20104;-35
2022/09/03 07:13:43;;;;;;;1.10;1.00;;;17.70;74.00;;;;;;5065336;28;20029;-35
2022/09/03 07:16:18;;;;;;;1.40;1.20;;;17.80;74.00;;;;;;5066884;28;20358;-36
2022/09/03 07:18:44;;;;;;;1.35;1.15;;;17.80;74.00;;;;;;5065434;28;20025;-35
2022/09/03 07:21:12;;;;;;;3.47;1.23;;;17.90;74.10;;;;;;5065797;28;20537;-37
2022/09/03 07:23:38;;;;;;;1.90;1.40;;;17.90;73.90;;;;;;5066599;28;20035;-35
2022/09/03 07:26:07;;;;;;;1.23;1.10;;;18.00;74.10;;;;;;5065586;28;20037;-35
2022/09/03 07:28:38;;;;;;;1.30;1.20;;;18.00;74.00;;;;;;5065011;28;20039;-35
2022/09/03 07:31:12;;;;;;;1.20;1.10;;;18.10;74.10;;;;;;5065435;28;20036;-35
2022/09/03 07:33:38;;;;;;;1.55;1.13;;;18.20;74.00;;;;;;5065530;28;20325;-34
2022/09/03 07:36:09;;;;;;;2.42;1.10;;;18.20;73.90;;;;;;5053568;28;20021;-35
2022/09/03 07:38:36;;;;;;;2.65;1.30;;;18.20;74.00;;;;;;5065825;28;20020;-36
2022/09/03 07:41:04;;;;;;;2.00;0.90;;;18.30;73.90;;;;;;5065400;28;20808;-38
2022/09/03 07:43:38;;;;;;;1.20;0.90;;;18.40;73.80;;;;;;5061802;28;20064;-35
2022/09/03 07:46:17;;;;;;;0.90;0.90;;;18.40;73.80;;;;;;5050767;28;20059;-36
2022/09/03 07:48:45;;;;;;;1.65;1.10;;;18.50;73.70;;;;;;5064593;28;20652;-36
2022/09/03 07:51:11;;;;;;;1.63;1.00;;;18.50;74.20;;;;;;5065091;28;20028;-36
2022/09/03 07:53:37;;;;;;;1.00;0.82;;;18.60;73.60;;;;;;5064670;28;20381;-35
2022/09/03 07:56:07;;;;;;;1.52;1.00;;;18.70;73.60;;;;;;5063654;28;20031;-35
2022/09/03 07:58:34;;;;;;;1.10;0.90;;;18.70;73.50;;;;;;5064946;28;20028;-35
2022/09/03 08:01:05;;;;;;;0.95;0.80;;;18.80;73.40;;;;;;5064133;28;20033;-35
2022/09/03 08:03:31;;;;;;;2.13;1.10;;;18.90;73.30;;;;;;5063669;28;20376;-35
2022/09/03 08:06:01;;;;;;;2.40;1.10;;;18.90;73.30;;;;;;5064059;28;20017;-35
2022/09/03 08:08:26;;;;;;;2.75;1.08;;;19.10;73.30;;;;;;5064379;28;20026;-36
2022/09/03 08:10:52;;;;;;;1.63;0.98;;;19.10;73.10;;;;;;5063805;28;20099;-36
2022/09/03 08:13:18;;;;;;;2.10;1.00;;;19.20;73.10;;;;;;5064176;28;20042;-36
2022/09/03 08:15:53;;;;;;;0.95;0.82;;;19.20;73.00;;;;;;5064083;28;20063;-36
2022/09/03 08:18:18;;;;;;;2.03;0.90;;;19.30;73.00;;;;;;5063764;28;20021;-36
2022/09/03 08:20:44;;;;;;;1.50;1.05;;;19.40;72.90;;;;;;5063043;28;20371;-35
2022/09/03 08:23:09;;;;;;;1.20;1.05;;;19.50;72.80;;;;;;5064350;28;20029;-35
2022/09/03 08:25:35;;;;;;;3.05;0.88;;;19.50;72.60;;;;;;5064091;28;20032;-36
2022/09/03 08:28:00;;;;;;;1.67;1.20;;;19.60;72.80;;;;;;5064159;28;20112;-36
2022/09/03 08:30:26;;;;;;;4.28;1.27;;;19.70;72.40;;;;;;5064853;28;20589;-36
2022/09/03 08:32:52;;;;;;;1.63;1.00;;;19.70;72.10;;;;;;5063671;28;20441;-36
2022/09/03 08:35:20;;;;;;;0.95;0.73;;;19.80;72.00;;;;;;5064512;28;20031;-35
2022/09/03 08:37:48;;;;;;;1.00;0.80;;;19.90;71.80;;;;;;5064484;28;20024;-35
2022/09/03 08:40:14;;;;;;;1.15;1.05;;;20.00;71.70;;;;;;5064462;28;20031;-35
2022/09/03 08:42:45;;;;;;;1.70;1.00;;;20.00;71.40;;;;;;5064044;28;20033;-36
2022/09/03 08:45:15;;;;;;;1.13;0.90;;;20.10;71.40;;;;;;5064195;28;20543;-35
2022/09/03 08:48:10;;;;;;;1.48;0.70;;;20.20;71.30;;;;;;5059448;28;20060;-36
2022/09/03 08:50:42;;;;;;;1.75;0.60;;;20.20;71.20;;;;;;5063701;28;20041;-35
2022/09/03 08:53:08;;;;;;;1.55;1.33;;;20.30;71.70;;;;;;5063406;28;20857;-35
2022/09/03 08:55:50;;;;;;;0.93;0.70;;;20.30;71.00;;;;;;5064581;28;20048;-35
2022/09/03 08:58:28;;;;;;;0.82;0.82;;;20.40;70.90;;;;;;5063896;28;20605;-36
2022/09/03 09:01:10;;;;;;;3.53;0.80;;;20.50;70.70;;;;;;5064486;28;20045;-36
2022/09/03 09:03:42;;;;;;;2.42;0.90;;;20.50;70.60;;;;;;5061121;28;20024;-36
2022/09/03 09:06:25;;;;;;;0.45;0.45;;;20.60;70.50;;;;;;5063632;28;20495;-36
2022/09/03 09:09:16;;;;;;;1.48;0.70;;;20.70;70.50;;;;;;5061092;28;20119;-35
2022/09/03 09:11:48;;;;;;;1.42;0.80;;;20.80;70.40;;;;;;5064236;28;20028;-35
2022/09/03 09:14:35;;;;;;;0.93;0.70;;;20.80;70.10;;;;;;5064219;28;20024;-35
2022/09/03 09:17:19;;;;;;;5.00;0.88;;;20.90;70.10;;;;;;5064084;28;20024;-36
2022/09/03 09:20:01;;;;;;;1.33;0.70;;;20.90;70.00;;;;;;5054335;28;20111;-36
2022/09/03 09:22:37;;;;;;;0.57;0.52;;;20.90;69.80;;;;;;5063031;28;20041;-35
2022/09/03 09:25:13;;;;;;;0.68;0.60;;;21.10;69.80;;;;;;5064507;28;20024;-37
2022/09/03 09:27:50;;;;;;;0.70;0.70;;;21.10;69.70;;;;;;5063156;28;20395;-36
2022/09/03 09:30:16;;;;;;;1.00;0.90;;;21.20;69.60;;;;;;5064179;28;20021;-37
2022/09/03 09:32:42;;;;;;;1.25;0.80;;;21.20;69.50;;;;;;5064114;28;20054;-36
2022/09/03 09:35:11;;;;;;;1.63;0.68;;;21.30;69.40;;;;;;5065548;28;20114;-35
2022/09/03 09:37:59;;;;;;;1.17;0.70;;;21.30;69.20;;;;;;5068126;28;20570;-36
2022/09/03 09:40:40;;;;;;;1.10;0.68;;;21.40;69.10;;;;;;5058808;28;20561;-37
2022/09/03 09:43:20;;;;;;;1.17;0.70;;;21.50;69.10;;;;;;5067728;28;20427;-35
2022/09/03 09:45:49;;;;;;;0.85;0.73;;;21.50;68.70;;;;;;5067212;28;20078;-35
2022/09/03 09:48:21;;;;;;;0.70;0.50;;;21.60;68.70;;;;;;5068680;28;20028;-36
2022/09/03 09:50:47;;;;;;;0.88;0.85;;;21.70;68.70;;;;;;5067543;28;20486;-36
2022/09/03 09:53:16;;;;;;;1.13;0.80;;;21.80;68.40;;;;;;5067611;28;20040;-36
2022/09/03 09:55:57;;;;;;;1.33;0.63;;;21.80;68.10;;;;;;5067378;28;20029;-36
2022/09/03 09:58:29;;;;;;;1.40;0.70;;;21.90;68.10;;;;;;5068056;28;20078;-36
2022/09/03 10:01:11;;;;;;;0.77;0.60;;;22.00;68.00;;;;;;5056774;28;20032;-35
2022/09/03 10:04:18;;;;;;;0.80;0.80;;;22.00;68.00;;;;;;5067290;28;20037;-36
2022/09/03 10:06:58;;;;;;;0.90;0.80;;;22.10;67.80;;;;;;5044263;28;20804;-36
2022/09/03 10:09:28;;;;;;;1.80;1.00;;;22.10;67.80;;;;;;5038034;28;20425;-36
2022/09/03 10:12:24;;;;;;;0.80;0.80;;;22.20;67.80;;;;;;5039798;28;20106;-36
2022/09/03 10:15:02;;;;;;;1.50;0.93;;;22.30;67.50;;;;;;5059957;28;20031;-37
2022/09/03 10:17:46;;;;;;;0.70;0.70;;;22.40;67.40;;;;;;5066748;28;20108;-36
2022/09/03 10:20:29;;;;;;;1.20;0.82;;;22.40;67.20;;;;;;5067082;28;20032;-35
2022/09/03 10:23:03;;;;;;;0.82;0.80;;;22.50;67.20;;;;;;5064988;28;20286;-37
2022/09/03 10:25:40;;;;;;;0.80;0.70;;;22.50;67.00;;;;;;5065616;28;20147;-35
2022/09/03 10:28:09;;;;;;;1.00;0.90;;;22.60;67.00;;;;;;5067507;28;20036;-36
2022/09/03 10:31:23;;;;;;;1.13;0.65;;;22.60;66.80;;;;;;5066866;28;20021;-36
2022/09/03 10:34:17;;;;;;;1.25;0.75;;;22.70;67.40;;;;;;5044168;28;20037;-37
2022/09/03 10:37:03;;;;;;;1.05;0.70;;;22.70;66.50;;;;;;5063856;28;20037;-37
2022/09/03 10:40:03;;;;;;;3.63;0.77;;;22.80;66.40;;;;;;5058549;28;20523;-35
2022/09/03 10:42:36;;;;;;;3.15;1.10;;;22.90;66.30;;;;;;5056983;28;20472;-36
2022/09/03 10:45:04;;;;;;;1.58;0.80;;;23.00;66.20;;;;;;5065975;28;20044;-37
2022/09/03 10:48:07;;;;;;;0.90;0.75;;;23.00;65.90;;;;;;5065551;28;20071;-36
2022/09/03 10:50:45;;;;;;;1.92;0.80;;;23.10;65.60;;;;;;5066543;28;20159;-36
2022/09/03 10:53:20;;;;;;;0.60;0.60;;;23.10;65.60;;;;;;5066394;28;20116;-37
2022/09/03 10:56:08;;;;;;;1.05;0.63;;;23.20;65.60;;;;;;5065720;28;20480;-35
2022/09/03 10:58:51;;;;;;;0.77;0.65;;;23.20;65.40;;;;;;5066139;28;20025;-35
2022/09/03 11:01:26;;;;;;;0.60;0.60;;;23.30;65.40;;;;;;5066676;28;20037;-36
2022/09/03 11:04:06;;;;;;;1.30;0.60;;;23.30;65.40;;;;;;5066281;28;20442;-35
2022/09/03 11:06:49;;;;;;;0.70;0.70;;;23.40;65.30;;;;;;5065888;28;20043;-35
2022/09/03 11:09:21;;;;;;;1.33;0.60;;;23.50;65.20;;;;;;5066640;28;20106;-36
2022/09/03 11:11:52;;;;;;;0.97;0.70;;;23.60;65.10;;;;;;5065286;28;20028;-37
2022/09/03 11:14:30;;;;;;;1.10;0.65;;;23.60;64.90;;;;;;5065872;28;20032;-35
2022/09/03 11:17:04;;;;;;;1.50;0.70;;;23.70;64.70;;;;;;5066032;28;20036;-36
2022/09/03 11:19:35;;;;;;;1.77;0.70;;;23.70;64.60;;;;;;5066107;28;20464;-36
2022/09/03 11:22:05;;;;;;;1.47;0.70;;;23.70;64.40;;;;;;5065948;28;20111;-36
2022/09/03 11:24:32;;;;;;;2.50;0.80;;;23.80;64.10;;;;;;5065864;28;20425;-36
2022/09/03 11:27:29;;;;;;;0.65;0.65;;;23.80;64.10;;;;;;5065253;28;20035;-36
2022/09/03 11:30:13;;;;;;;1.50;0.60;;;23.90;64.20;;;;;;5065415;28;20115;-36
2022/09/03 11:33:00;;;;;;;1.80;0.82;;;23.90;64.00;;;;;;5065977;28;20024;-36
2022/09/03 11:35:40;;;;;;;1.42;0.93;;;23.90;64.00;;;;;;5045519;28;20771;-36
2022/09/03 11:38:15;;;;;;;0.85;0.70;;;24.10;64.10;;;;;;5062223;28;20470;-37
2022/09/03 11:41:15;;;;;;;0.90;0.60;;;24.10;63.90;;;;;;5045907;28;20496;-36
2022/09/03 11:43:42;;;;;;;0.82;0.80;;;24.20;63.90;;;;;;5065710;28;20029;-37
2022/09/03 11:46:20;;;;;;;0.75;0.75;;;24.20;63.80;;;;;;5065894;28;20342;-36
2022/09/03 11:48:47;;;;;;;0.85;0.60;;;24.20;63.80;;;;;;5064244;28;20028;-36
2022/09/03 11:51:19;;;;;;;1.33;0.60;;;24.30;63.80;;;;;;5065780;28;20024;-35
2022/09/03 11:53:59;;;;;;;2.05;0.80;;;24.30;63.80;;;;;;5065056;28;20087;-36
2022/09/03 11:56:25;;;;;;;0.70;0.70;;;24.30;63.60;;;;;;5065014;28;20028;-36
2022/09/03 11:59:12;;;;;;;1.10;0.60;;;24.30;63.40;;;;;;5064698;28;20036;-37
2022/09/03 12:01:43;;;;;;;1.10;0.70;;;24.40;63.50;;;;;;5065348;28;20040;-37
2022/09/03 12:04:14;;;;;;;1.33;0.70;;;24.50;63.50;;;;;;5065067;28;20020;-36
2022/09/03 12:07:20;;;;;;;0.60;0.60;;;24.50;63.50;;;;;;5065214;28;20017;-36
2022/09/03 12:10:11;;;;;;;1.15;0.75;;;24.60;63.90;;;;;;5064509;28;20040;-35
2022/09/03 12:13:17;;;;;;;0.93;0.73;;;24.60;63.00;;;;;;5064731;28;20149;-35
2022/09/03 12:15:51;;;;;;;0.85;0.60;;;24.60;63.20;;;;;;5056622;28;20032;-38
2022/09/03 12:18:22;;;;;;;1.00;0.75;;;24.70;63.10;;;;;;5064487;28;20023;-35
2022/09/03 12:21:02;;;;;;;0.97;0.70;;;24.80;63.00;;;;;;5064645;28;20025;-36
2022/09/03 12:23:48;;;;;;;0.85;0.60;;;24.90;62.90;;;;;;5064365;28;20033;-42
2022/09/03 12:26:18;;;;;;;0.65;0.65;;;24.90;62.90;;;;;;5064638;28;20025;-36
2022/09/03 12:28:49;;;;;;;1.58;0.80;;;24.90;62.80;;;;;;5065089;28;20028;-35
2022/09/03 12:31:23;;;;;;;0.80;0.70;;;25.00;62.80;;;;;;5064800;28;20115;-37
2022/09/03 12:34:00;;;;;;;0.70;0.70;;;25.00;62.80;;;;;;5064042;28;20016;-37
2022/09/03 12:36:37;;;;;;;0.57;0.57;;;25.00;62.80;;;;;;5064403;28;20025;-36
2022/09/03 12:39:10;;;;;;;0.60;0.60;;;25.20;62.80;;;;;;5064116;28;20066;-36
2022/09/03 12:41:37;;;;;;;0.73;0.73;;;25.20;62.70;;;;;;5064197;28;20093;-36
2022/09/03 12:44:03;;;;;;;0.68;0.50;;;25.20;62.60;;;;;;5065073;28;20548;-34
2022/09/03 12:46:31;;;;;;;0.80;0.75;;;25.20;62.60;;;;;;5064524;28;20115;-35
2022/09/03 12:49:06;;;;;;;0.70;0.70;;;25.20;62.50;;;;;;5064691;28;20031;-37
2022/09/03 12:51:40;;;;;;;0.68;0.50;;;25.30;62.60;;;;;;5064675;28;20490;-36
2022/09/03 12:54:14;;;;;;;0.82;0.60;;;25.30;62.60;;;;;;5064533;28;20115;-37
2022/09/03 12:56:42;;;;;;;0.70;0.70;;;25.30;62.50;;;;;;5064822;28;20028;-36
2022/09/03 12:59:16;;;;;;;0.82;0.80;;;25.40;62.30;;;;;;5063826;28;20016;-35
2022/09/03 13:01:50;;;;;;;1.25;0.70;;;25.50;62.20;;;;;;5064415;28;20056;-35
2022/09/03 13:04:20;;;;;;;0.88;0.80;;;25.60;62.10;;;;;;5064782;28;20024;-36
2022/09/03 13:06:55;;;;;;;2.95;0.90;;;25.70;62.10;;;;;;5063488;28;20029;-36
2022/09/03 13:09:23;;;;;;;0.75;0.70;;;25.70;62.10;;;;;;5063671;28;20028;-36
2022/09/03 13:11:51;;;;;;;1.30;0.80;;;25.70;62.10;;;;;;5064350;28;20046;-36
2022/09/03 13:14:18;;;;;;;1.08;0.90;;;25.70;62.80;;;;;;5063827;28;20021;-37
2022/09/03 13:16:44;;;;;;;0.80;0.80;;;25.80;62.20;;;;;;5063245;28;20048;-36